createdAt,value
2022-09-07T00:04:10.260Z,13.02
2022-09-07T00:09:11.792Z,10.23
2022-09-07T00:14:13.231Z,11.43
2022-09-07T00:19:14.705Z,11.27
2022-09-07T00:24:16.189Z,9.30
2022-09-07T00:29:17.582Z,9.52
2022-09-07T00:34:19.059Z,8.77
2022-09-07T00:39:20.547Z,7.60
2022-09-07T00:44:40.254Z,8.10
2022-09-07T00:54:46.026Z,8.73
2022-09-07T00:59:49.420Z,6.20
2022-09-07T01:04:53.351Z,6.50
2022-09-07T01:09:55.558Z,8.48
2022-09-07T01:14:56.982Z,7.40
2022-09-07T01:20:10.506Z,6.10
2022-09-07T01:25:29.949Z,6.93
2022-09-07T01:30:35.025Z,9.20
2022-09-07T01:35:55.014Z,6.45
2022-09-07T01:41:05.018Z,5.28
2022-09-07T01:46:08.778Z,6.55
2022-09-07T01:51:10.900Z,7.35
2022-09-07T01:56:21.143Z,6.55
2022-09-07T02:01:25.514Z,3.67
2022-09-07T02:06:33.678Z,6.55
2022-09-07T02:11:37.325Z,4.60
2022-09-07T02:16:57.766Z,5.07
2022-09-07T02:22:01.406Z,7.88
2022-09-07T02:27:06.226Z,6.03
2022-09-07T02:32:07.778Z,5.93
2022-09-07T02:37:09.979Z,6.32
2022-09-07T02:42:11.547Z,4.68
2022-09-07T02:47:16.055Z,5.97
2022-09-07T02:52:36.241Z,5.63
2022-09-07T02:57:51.048Z,6.40
2022-09-07T03:03:17.263Z,3.83
2022-09-07T03:08:24.195Z,4.65
2022-09-07T03:13:26.786Z,3.72
2022-09-07T03:18:28.510Z,4.65
2022-09-07T03:23:29.994Z,3.20
2022-09-07T03:28:31.529Z,7.00
2022-09-07T03:33:33.725Z,4.65
2022-09-07T03:38:35.236Z,4.53
2022-09-07T03:43:36.714Z,4.95
2022-09-07T03:48:39.455Z,7.18
2022-09-07T03:53:41.980Z,5.18
2022-09-07T03:58:43.984Z,6.97
2022-09-07T04:03:45.996Z,3.85
2022-09-07T04:08:47.848Z,4.38
2022-09-07T04:13:49.300Z,7.00
2022-09-07T04:18:51.542Z,7.18
2022-09-07T04:23:53.274Z,5.45
2022-09-07T04:28:55.009Z,3.80
2022-09-07T04:33:56.641Z,4.65
2022-09-07T04:39:02.328Z,9.38
2022-09-07T04:44:04.138Z,9.20
2022-09-07T04:49:07.261Z,10.57
2022-09-07T04:54:10.017Z,12.38
2022-09-07T04:59:11.474Z,10.05
2022-09-07T05:04:12.990Z,8.30
2022-09-07T05:09:14.699Z,10.63
2022-09-07T05:14:16.356Z,6.25
2022-09-07T05:19:17.865Z,6.50
2022-09-07T05:24:19.379Z,9.55
2022-09-07T05:34:42.427Z,6.32
2022-09-07T05:39:44.149Z,6.70
2022-09-07T05:44:46.107Z,6.15
2022-09-07T05:49:47.899Z,5.25
2022-09-07T05:54:49.904Z,5.97
2022-09-07T05:59:51.408Z,6.55
2022-09-07T06:04:52.807Z,6.82
2022-09-07T06:15:15.679Z,6.72
2022-09-07T06:20:17.189Z,6.78
2022-09-07T06:25:18.647Z,5.75
2022-09-07T06:30:20.971Z,6.65
2022-09-07T06:35:22.355Z,5.35
2022-09-07T06:40:23.858Z,6.78
2022-09-07T06:45:25.471Z,4.72
2022-09-07T06:50:27.854Z,6.20
2022-09-07T06:55:29.337Z,5.95
2022-09-07T07:00:30.846Z,5.65
2022-09-07T07:05:32.309Z,4.90
2022-09-07T07:10:36.882Z,6.25
2022-09-07T07:15:38.407Z,4.20
2022-09-07T07:20:40.803Z,4.85
2022-09-07T07:25:42.279Z,5.85
2022-09-07T07:30:43.736Z,6.05
2022-09-07T07:35:45.090Z,7.00
2022-09-07T07:46:14.904Z,3.97
2022-09-07T07:51:16.376Z,5.03
2022-09-07T07:56:18.234Z,5.32
2022-09-07T08:01:19.822Z,8.18
2022-09-07T08:06:22.611Z,6.15
2022-09-07T08:11:24.104Z,7.05
2022-09-07T08:16:25.600Z,7.13
2022-09-07T08:21:27.029Z,7.40
2022-09-07T08:26:28.424Z,7.97
2022-09-07T08:31:30.047Z,7.13
2022-09-07T08:36:31.970Z,9.13
2022-09-07T08:41:33.380Z,5.75
2022-09-07T08:46:44.246Z,7.97
2022-09-07T08:52:03.558Z,5.65
2022-09-07T08:57:20.861Z,6.97
2022-09-07T09:02:32.557Z,8.82
2022-09-07T09:07:36.757Z,6.93
2022-09-07T09:12:38.165Z,8.43
2022-09-07T09:17:42.393Z,8.50
2022-09-07T09:22:44.212Z,6.97
2022-09-07T09:27:45.994Z,8.30
2022-09-07T09:32:48.863Z,7.70
2022-09-07T09:37:50.305Z,8.32
2022-09-07T09:43:04.080Z,10.75
2022-09-07T09:48:10.129Z,7.15
2022-09-07T09:53:21.664Z,8.48
2022-09-07T10:03:56.063Z,9.32
2022-09-07T10:09:00.157Z,8.52
2022-09-07T10:14:01.668Z,9.30
2022-09-07T10:19:03.227Z,8.73
2022-09-07T10:24:04.588Z,10.32
2022-09-07T10:29:07.769Z,8.90
2022-09-07T10:34:26.264Z,9.75
2022-09-07T10:39:31.667Z,7.73
2022-09-07T10:44:44.478Z,8.13
2022-09-07T10:50:22.126Z,8.20
2022-09-07T10:55:34.110Z,8.70
2022-09-07T11:00:41.287Z,9.05
2022-09-07T11:05:51.250Z,8.52
2022-09-07T11:11:01.725Z,8.43
2022-09-07T11:16:06.656Z,9.05
2022-09-07T11:21:13.268Z,7.20
2022-09-07T11:26:19.072Z,7.60
2022-09-07T11:31:30.749Z,10.75
2022-09-07T11:36:36.323Z,8.98
2022-09-07T11:41:42.499Z,10.77
2022-09-07T11:46:45.856Z,10.40
2022-09-07T11:51:53.330Z,9.40
2022-09-07T11:56:58.149Z,10.10
2022-09-07T12:01:59.648Z,11.07
2022-09-07T12:07:16.397Z,9.63
2022-09-07T12:12:23.843Z,13.57
2022-09-07T12:17:31.414Z,11.57
2022-09-07T12:22:34.125Z,14.65
2022-09-07T12:27:36.621Z,12.93
2022-09-07T12:32:55.669Z,11.50
2022-09-07T12:38:24.526Z,13.55
2022-09-07T12:43:32.318Z,13.27
2022-09-07T12:48:57.095Z,10.60
2022-09-07T12:53:58.449Z,10.45
2022-09-07T12:59:17.308Z,9.63
2022-09-07T13:04:28.734Z,9.75
2022-09-07T13:09:30.202Z,10.10
2022-09-07T13:14:34.475Z,11.43
2022-09-07T13:19:51.461Z,8.18
2022-09-07T13:24:55.319Z,8.35
2022-09-07T13:30:03.040Z,9.75
2022-09-07T13:35:12.447Z,7.70
2022-09-07T13:40:16.720Z,8.95
2022-09-07T13:45:30.449Z,10.68
2022-09-07T13:50:31.851Z,9.30
2022-09-07T13:55:51.731Z,11.88
2022-09-07T14:00:54.616Z,9.75
2022-09-07T14:06:14.864Z,9.63
2022-09-07T14:11:21.250Z,8.10
2022-09-07T14:16:22.703Z,12.27
2022-09-07T14:21:24.229Z,11.15
2022-09-07T14:26:26.368Z,8.45
2022-09-07T14:31:28.702Z,8.23
2022-09-07T14:36:47.467Z,9.07
2022-09-07T14:41:49.162Z,6.57
2022-09-07T14:46:55.141Z,8.68
2022-09-07T14:51:58.432Z,9.65
2022-09-07T14:57:02.527Z,9.55
2022-09-07T15:02:19.657Z,7.40
2022-09-07T15:07:37.322Z,7.57
2022-09-07T15:12:41.622Z,6.72
2022-09-07T15:17:43.682Z,7.93
2022-09-07T15:22:45.922Z,7.20
2022-09-07T15:27:47.459Z,6.80
2022-09-07T15:32:49.483Z,9.70
2022-09-07T15:38:59.413Z,6.53
2022-09-07T15:43:20.329Z,7.63
2022-09-07T15:48:25.199Z,8.13
2022-09-07T15:58:52.060Z,8.98
2022-09-07T16:03:54.350Z,6.93
2022-09-07T16:08:55.938Z,9.55
2022-09-07T16:14:01.705Z,6.80
2022-09-07T16:19:07.372Z,8.52
2022-09-07T16:24:09.137Z,9.13
2022-09-07T16:29:10.545Z,10.93
2022-09-07T16:34:12.510Z,9.48
2022-09-07T16:39:15.288Z,8.40
2022-09-07T16:44:16.963Z,7.82
2022-09-07T16:49:19.611Z,6.95
2022-09-07T16:54:21.265Z,9.32
2022-09-07T16:59:26.767Z,6.90
2022-09-07T17:04:29.078Z,6.53
2022-09-07T17:09:30.572Z,8.15
2022-09-07T17:14:31.979Z,7.40
2022-09-07T17:19:33.487Z,7.88
2022-09-07T17:24:35.022Z,6.53
2022-09-07T17:29:37.801Z,7.95
2022-09-07T17:34:39.278Z,8.35
2022-09-07T17:39:40.748Z,9.52
2022-09-07T17:44:42.278Z,9.13
2022-09-07T17:49:43.788Z,13.38
2022-09-07T17:54:45.246Z,8.20
2022-09-07T18:05:08.266Z,10.00
2022-09-07T18:10:09.931Z,13.30
2022-09-07T18:15:11.359Z,13.45
2022-09-07T18:20:12.793Z,13.05
2022-09-07T18:25:14.534Z,12.85
2022-09-07T18:30:17.346Z,13.57
2022-09-07T18:35:18.782Z,15.77
2022-09-07T18:40:21.509Z,13.75
2022-09-07T18:45:30.454Z,14.15
2022-09-07T18:50:31.974Z,12.05
2022-09-07T18:55:33.417Z,13.98
2022-09-07T19:00:34.863Z,13.07
2022-09-07T19:05:52.846Z,11.48
2022-09-07T19:10:54.638Z,11.98
2022-09-07T19:16:02.640Z,13.75
2022-09-07T19:21:10.644Z,11.10
2022-09-07T19:26:14.916Z,13.88
2022-09-07T19:31:16.344Z,11.27
2022-09-07T19:36:17.858Z,13.48
2022-09-07T19:41:19.427Z,13.95
2022-09-07T19:46:24.837Z,11.98
2022-09-07T19:51:26.457Z,12.20
2022-09-07T19:56:27.852Z,10.32
2022-09-07T20:01:29.572Z,12.38
2022-09-07T20:06:32.851Z,13.43
2022-09-07T20:11:34.990Z,10.82
2022-09-07T20:16:38.534Z,10.45
2022-09-07T20:21:40.064Z,9.57
2022-09-07T20:26:41.497Z,10.82
2022-09-07T20:31:44.239Z,11.52
2022-09-07T20:36:48.907Z,11.85
2022-09-07T20:41:50.604Z,13.40
2022-09-07T20:46:52.219Z,11.60
2022-09-07T20:51:53.847Z,12.43
2022-09-07T20:56:55.309Z,10.75
2022-09-07T21:01:56.782Z,11.13
2022-09-07T21:06:58.321Z,12.82
2022-09-07T21:11:59.742Z,11.98
2022-09-07T21:17:01.460Z,9.77
2022-09-07T21:22:02.891Z,12.90
2022-09-07T21:27:04.341Z,11.00
2022-09-07T21:32:06.246Z,14.13
2022-09-07T21:37:07.681Z,11.35
2022-09-07T21:42:09.082Z,15.10
2022-09-07T21:47:10.584Z,12.05
2022-09-07T21:52:12.277Z,11.70
2022-09-07T21:57:13.874Z,9.73
2022-09-07T22:02:15.463Z,10.38
2022-09-07T22:07:16.930Z,9.32
2022-09-07T22:12:18.326Z,11.65
2022-09-07T22:17:19.786Z,12.68
2022-09-07T22:22:21.272Z,11.77
2022-09-07T22:27:22.877Z,10.63
2022-09-07T22:32:24.313Z,12.00
2022-09-07T22:37:26.006Z,12.05
2022-09-07T22:42:27.385Z,13.85
2022-09-07T22:47:28.818Z,14.13
2022-09-07T22:52:30.331Z,14.90
2022-09-07T22:57:31.788Z,15.98
2022-09-07T23:02:33.572Z,14.95
2022-09-07T23:07:34.988Z,15.13
2022-09-07T23:12:36.606Z,14.18
2022-09-07T23:17:38.033Z,17.60
2022-09-07T23:22:39.483Z,13.90
2022-09-07T23:27:40.988Z,13.02
2022-09-07T23:32:42.596Z,14.63
2022-09-07T23:37:44.198Z,13.07
2022-09-07T23:42:46.061Z,11.50
2022-09-07T23:47:47.496Z,12.40
2022-09-07T23:52:48.919Z,11.90
2022-09-07T23:57:50.475Z,10.82
